createdAt,value
2023-03-06T00:03:48.962Z,3.95
2023-03-06T00:24:09.703Z,3.88
2023-03-06T00:44:30.179Z,3.85
2023-03-06T01:04:50.657Z,3.80
2023-03-06T01:25:10.954Z,3.60
2023-03-06T01:45:12.769Z,3.63
2023-03-06T02:05:14.475Z,3.50
2023-03-06T02:25:16.596Z,3.53
2023-03-06T02:45:18.685Z,3.51
2023-03-06T03:05:21.462Z,3.49
2023-03-06T03:25:30.347Z,3.24
2023-03-06T03:45:33.147Z,2.83
2023-03-06T04:05:35.191Z,2.97
2023-03-06T04:25:39.232Z,2.63
2023-03-06T04:45:59.567Z,2.75
2023-03-06T05:06:19.826Z,2.92
2023-03-06T05:26:40.210Z,2.95
2023-03-06T05:47:00.932Z,2.84
2023-03-06T06:07:21.780Z,2.72
2023-03-06T06:27:42.375Z,2.86
2023-03-06T06:47:44.206Z,3.38
2023-03-06T07:07:46.052Z,3.39
2023-03-06T07:27:53.305Z,3.56
2023-03-06T07:47:55.846Z,3.89
2023-03-06T08:07:57.801Z,4.00
2023-03-06T08:27:59.783Z,4.10
2023-03-06T08:48:01.580Z,4.45
2023-03-06T09:08:03.500Z,4.74
2023-03-06T09:28:11.384Z,4.29
2023-03-06T09:48:13.955Z,4.60
2023-03-06T10:08:16.023Z,4.71
2023-03-06T10:28:17.713Z,5.18
2023-03-06T10:48:22.072Z,5.18
2023-03-06T11:08:23.683Z,4.91
2023-03-06T11:28:25.563Z,4.78
2023-03-06T11:48:27.203Z,5.23
2023-03-06T12:08:32.146Z,5.51
2023-03-06T12:28:33.943Z,5.65
2023-03-06T12:48:35.846Z,5.87
2023-03-06T13:08:37.839Z,5.41
2023-03-06T13:28:40.070Z,5.74
2023-03-06T13:48:45.212Z,5.64
2023-03-06T14:08:48.410Z,6.05
2023-03-06T14:28:50.139Z,5.84
2023-03-06T14:48:52.052Z,5.41
2023-03-06T15:08:53.920Z,5.36
2023-03-06T15:28:59.950Z,5.47
2023-03-06T15:49:10.237Z,5.07
2023-03-06T16:09:12.043Z,4.70
2023-03-06T16:29:13.899Z,4.37
2023-03-06T16:49:15.932Z,3.83
2023-03-06T17:09:20.133Z,3.33
2023-03-06T17:29:21.753Z,3.25
2023-03-06T17:49:24.058Z,3.40
2023-03-06T18:09:26.094Z,3.42
2023-03-06T18:29:28.382Z,3.43
2023-03-06T18:49:32.111Z,2.97
2023-03-06T19:09:33.959Z,2.92
2023-03-06T19:29:35.808Z,2.48
2023-03-06T19:49:37.820Z,2.14
2023-03-06T20:09:40.796Z,1.76
2023-03-06T20:51:09.576Z,1.27
2023-03-06T21:11:21.997Z,1.46
2023-03-06T21:31:38.980Z,3.52
2023-03-06T21:51:40.480Z,4.00
2023-03-06T22:11:42.217Z,2.64
2023-03-06T22:31:43.864Z,1.60
2023-03-06T22:51:45.707Z,1.41
2023-03-06T23:11:47.172Z,1.70
2023-03-06T23:32:07.532Z,1.50
2023-03-06T23:52:09.185Z,1.32
